Tinaja, New Mexico
Current Conditions -  °F | °C
As of 4:53 AM on Saturday 25 Oct 2014 (Local Time) from KGUP Reporting Station
Clear Clear  
Wind Chill: 37°   Ceiling: Unl
Heat Index: 37°   Visibility: 10mi
Dew Point: 29°   Wind: 0mph
Humidity: 73%   Direction: NA
Pressure: 30.35"   Gusts: NA
Location:  35.1314°N, 108.496°W
Report Text: KGUP 251053Z AUTO 00000KT 10SM CLR 03/M02 A3035 RMK AO2 SLP181 T00281017
Loading
Personal Weather Stations






























Interactive Weather Map New forecast layout! Learn more

10-Day Weather Forecast

Advertisements
Track Severe Weather on mobile